Time;durP1;ratioP1;P1;durP2;ratioP2;P2;SDS_P1;SDS_P2;PMS_P1;PMS_P2;Temp;Humidity;BMP_temperature;BMP_pressure;BME280_temperature;BME280_humidity;BME280_pressure;Samples;Min_cycle;Max_cycle;Signal;HPM_P1;HPM_P2
2023/12/27 00:01:40;;;;;;;;;;;3.40;100.00;;;;;;6271049;22;19954;-66
2023/12/27 00:04:08;;;;;;;;;;;3.40;100.00;;;;;;6267503;22;19919;-66
2023/12/27 00:06:35;;;;;;;;;;;3.50;100.00;;;;;;6216222;22;19926;-67
2023/12/27 00:09:02;;;;;;;;;;;3.50;100.00;;;;;;6268095;22;19941;-66
2023/12/27 00:11:29;;;;;;;;;;;3.50;100.00;;;;;;6268375;22;19926;-66
2023/12/27 00:13:56;;;;;;;;;;;3.50;100.00;;;;;;6268463;22;19981;-66
2023/12/27 00:16:22;;;;;;;;;;;3.40;100.00;;;;;;6268872;22;19923;-67
2023/12/27 00:18:49;;;;;;;;;;;3.40;100.00;;;;;;6264896;22;20521;-66
2023/12/27 00:21:16;;;;;;;;;;;3.40;100.00;;;;;;6298570;22;20331;-66
2023/12/27 00:23:43;;;;;;;;;;;3.40;100.00;;;;;;6299978;22;19923;-67
2023/12/27 00:26:10;;;;;;;;;;;3.30;100.00;;;;;;6271615;22;19988;-66
2023/12/27 00:28:36;;;;;;;;;;;3.30;100.00;;;;;;6271654;22;19922;-66
2023/12/27 00:31:03;;;;;;;;;;;3.30;100.00;;;;;;6298389;22;19950;-66
2023/12/27 00:33:31;;;;;;;;;;;3.30;100.00;;;;;;6297448;22;19919;-66
2023/12/27 00:35:58;;;;;;;;;;;3.30;100.00;;;;;;6296150;22;19942;-66
2023/12/27 00:38:24;;;;;;;;;;;3.30;100.00;;;;;;6297810;22;19919;-65
2023/12/27 00:40:51;;;;;;;;;;;3.20;100.00;;;;;;6296806;22;19919;-66
2023/12/27 00:43:18;;;;;;;;;;;3.20;100.00;;;;;;6294278;22;19980;-66
2023/12/27 00:45:45;;;;;;;;;;;3.20;100.00;;;;;;6296099;22;19922;-65
2023/12/27 00:48:12;;;;;;;;;;;3.20;100.00;;;;;;6294401;22;19918;-66
2023/12/27 00:50:39;;;;;;;;;;;3.10;100.00;;;;;;6295600;22;20525;-66
2023/12/27 00:53:06;;;;;;;;;;;3.10;100.00;;;;;;6267709;22;19954;-66
2023/12/27 00:55:32;;;;;;;;;;;3.10;100.00;;;;;;6297460;22;19923;-66
2023/12/27 00:57:59;;;;;;;;;;;3.20;100.00;;;;;;6269918;22;20406;-66
2023/12/27 01:00:26;;;;;;;;;;;3.20;100.00;;;;;;6297093;22;20484;-66
2023/12/27 01:02:53;;;;;;;;;;;3.20;100.00;;;;;;6270784;22;19939;-66
2023/12/27 01:05:20;;;;;;;;;;;3.20;100.00;;;;;;6268337;22;19918;-66
2023/12/27 01:07:46;;;;;;;;;;;3.20;100.00;;;;;;6295029;22;19919;-66
2023/12/27 01:10:14;;;;;;;;;;;3.20;100.00;;;;;;6295465;22;19964;-66
2023/12/27 01:12:41;;;;;;;;;;;3.20;100.00;;;;;;6321824;22;19918;-66
2023/12/27 01:15:08;;;;;;;;;;;3.20;100.00;;;;;;6298056;22;20315;-66
2023/12/27 01:17:35;;;;;;;;;;;3.20;100.00;;;;;;6289428;22;19918;-66
2023/12/27 01:20:01;;;;;;;;;;;3.20;100.00;;;;;;6267293;22;19925;-66
2023/12/27 01:22:28;;;;;;;;;;;3.20;100.00;;;;;;6239353;22;19958;-66
2023/12/27 01:24:55;;;;;;;;;;;3.10;100.00;;;;;;6263793;22;20585;-66
2023/12/27 01:27:22;;;;;;;;;;;3.10;100.00;;;;;;6266056;22;19919;-66
2023/12/27 01:29:49;;;;;;;;;;;3.20;100.00;;;;;;6240087;22;19998;-66
2023/12/27 01:32:15;;;;;;;;;;;3.20;100.00;;;;;;6266072;22;20453;-66
2023/12/27 01:34:42;;;;;;;;;;;3.20;100.00;;;;;;6265548;22;19945;-66
2023/12/27 01:37:09;;;;;;;;;;;3.20;100.00;;;;;;6266890;22;19953;-66
2023/12/27 01:39:36;;;;;;;;;;;3.20;100.00;;;;;;6266572;22;20316;-66
2023/12/27 01:42:03;;;;;;;;;;;3.20;100.00;;;;;;6267643;22;19921;-66
2023/12/27 01:44:29;;;;;;;;;;;3.20;100.00;;;;;;6266188;22;19926;-66
2023/12/27 01:46:56;;;;;;;;;;;3.20;100.00;;;;;;6239849;22;19973;-66
2023/12/27 01:49:23;;;;;;;;;;;3.20;100.00;;;;;;6239726;22;19919;-66
2023/12/27 01:51:50;;;;;;;;;;;3.20;100.00;;;;;;6239101;22;19989;-66
2023/12/27 01:54:17;;;;;;;;;;;3.10;100.00;;;;;;6239568;22;19969;-66
2023/12/27 01:56:44;;;;;;;;;;;3.20;100.00;;;;;;6238523;22;19950;-66
2023/12/27 01:59:12;;;;;;;;;;;3.10;100.00;;;;;;6266223;22;19919;-66
2023/12/27 02:01:39;;;;;;;;;;;3.10;100.00;;;;;;6267569;22;19915;-66
2023/12/27 02:04:06;;;;;;;;;;;3.10;100.00;;;;;;6266584;22;20223;-66
2023/12/27 02:06:33;;;;;;;;;;;3.10;100.00;;;;;;6266807;22;19919;-67
2023/12/27 02:09:00;;;;;;;;;;;3.00;100.00;;;;;;6240073;22;20002;-66
2023/12/27 02:11:27;;;;;;;;;;;3.00;100.00;;;;;;6266179;22;19918;-66
2023/12/27 02:13:54;;;;;;;;;;;3.00;100.00;;;;;;6266101;22;19919;-66
2023/12/27 02:16:21;;;;;;;;;;;2.90;100.00;;;;;;6266069;22;19919;-66
2023/12/27 02:18:48;;;;;;;;;;;2.80;100.00;;;;;;6265898;22;19919;-66
2023/12/27 02:21:16;;;;;;;;;;;2.80;100.00;;;;;;6240237;22;19996;-66
2023/12/27 02:23:45;;;;;;;;;;;2.80;100.00;;;;;;6265831;22;20667;-66
2023/12/27 02:26:12;;;;;;;;;;;2.70;100.00;;;;;;6238943;22;19930;-66
2023/12/27 02:28:39;;;;;;;;;;;2.70;100.00;;;;;;6266457;22;19923;-66
2023/12/27 02:31:06;;;;;;;;;;;2.60;100.00;;;;;;6266199;22;20002;-66
2023/12/27 02:33:33;;;;;;;;;;;2.60;100.00;;;;;;6266320;22;19949;-66
2023/12/27 02:36:00;;;;;;;;;;;2.60;100.00;;;;;;6238873;22;20010;-66
2023/12/27 02:38:27;;;;;;;;;;;2.60;100.00;;;;;;6239775;22;20273;-66
2023/12/27 02:40:55;;;;;;;;;;;2.60;100.00;;;;;;6265692;22;19926;-66
2023/12/27 02:43:22;;;;;;;;;;;2.60;100.00;;;;;;6265615;22;19977;-66
2023/12/27 02:45:49;;;;;;;;;;;2.50;100.00;;;;;;6266350;22;19927;-66
2023/12/27 02:48:15;;;;;;;;;;;2.50;100.00;;;;;;6266651;22;19918;-66
2023/12/27 02:50:44;;;;;;;;;;;2.50;100.00;;;;;;6266166;22;19938;-66
2023/12/27 02:53:11;;;;;;;;;;;2.50;100.00;;;;;;6238588;22;19919;-66
2023/12/27 02:55:38;;;;;;;;;;;2.50;100.00;;;;;;6265890;22;19919;-66
2023/12/27 02:58:05;;;;;;;;;;;2.40;100.00;;;;;;6266075;22;19973;-66
2023/12/27 03:00:35;;;;;;;;;;;2.40;100.00;;;;;;6238571;22;19919;-66
2023/12/27 03:03:02;;;;;;;;;;;2.30;100.00;;;;;;6266607;22;19915;-66
2023/12/27 03:05:30;;;;;;;;;;;2.20;100.00;;;;;;6239647;22;19950;-66
2023/12/27 03:07:57;;;;;;;;;;;2.30;100.00;;;;;;6238292;22;20304;-66
2023/12/27 03:10:24;;;;;;;;;;;2.40;100.00;;;;;;6266609;22;19919;-66
2023/12/27 03:12:51;;;;;;;;;;;2.40;100.00;;;;;;6265034;22;19919;-66
2023/12/27 03:15:18;;;;;;;;;;;2.30;100.00;;;;;;6238530;22;20545;-66
2023/12/27 03:17:44;;;;;;;;;;;2.30;100.00;;;;;;6265391;22;19941;-66
2023/12/27 03:20:11;;;;;;;;;;;2.30;100.00;;;;;;6266582;22;20042;-66
2023/12/27 03:22:38;;;;;;;;;;;2.30;100.00;;;;;;6264761;22;20598;-66
2023/12/27 03:25:05;;;;;;;;;;;2.20;100.00;;;;;;6264755;22;19923;-66
2023/12/27 03:27:32;;;;;;;;;;;2.10;100.00;;;;;;6266390;22;19972;-66
2023/12/27 03:29:59;;;;;;;;;;;2.10;100.00;;;;;;6265509;22;19959;-66
2023/12/27 03:32:26;;;;;;;;;;;2.10;100.00;;;;;;6264567;22;19919;-66
2023/12/27 03:34:52;;;;;;;;;;;2.10;100.00;;;;;;6265942;22;19919;-66
2023/12/27 03:37:19;;;;;;;;;;;2.10;100.00;;;;;;6238209;22;19926;-66
2023/12/27 03:39:50;;;;;;;;;;;2.00;100.00;;;;;;6267601;22;19926;-66
2023/12/27 03:42:19;;;;;;;;;;;2.00;100.00;;;;;;6268224;22;19919;-66
2023/12/27 03:44:52;;;;;;;;;;;2.00;100.00;;;;;;6267745;22;19926;-66
2023/12/27 03:47:19;;;;;;;;;;;1.90;100.00;;;;;;6267587;22;19923;-66
2023/12/27 03:49:46;;;;;;;;;;;1.90;100.00;;;;;;6267407;22;19922;-66
2023/12/27 03:52:13;;;;;;;;;;;1.80;100.00;;;;;;6267217;22;19919;-66
2023/12/27 03:54:40;;;;;;;;;;;1.80;100.00;;;;;;6267255;22;19926;-66
2023/12/27 03:57:07;;;;;;;;;;;1.70;100.00;;;;;;6267965;22;19962;-66
2023/12/27 03:59:36;;;;;;;;;;;1.70;100.00;;;;;;6267685;22;19919;-66
2023/12/27 04:02:03;;;;;;;;;;;1.70;100.00;;;;;;6266266;22;19919;-66
2023/12/27 04:04:29;;;;;;;;;;;1.70;100.00;;;;;;6265454;22;19923;-66
2023/12/27 04:06:56;;;;;;;;;;;1.70;100.00;;;;;;6266632;22;19926;-66
2023/12/27 04:09:23;;;;;;;;;;;1.60;100.00;;;;;;6266985;22;19919;-66
2023/12/27 04:11:50;;;;;;;;;;;1.60;100.00;;;;;;6265683;22;19927;-66
2023/12/27 04:14:17;;;;;;;;;;;1.60;100.00;;;;;;6266679;22;19919;-66
2023/12/27 04:16:44;;;;;;;;;;;1.60;100.00;;;;;;6267390;22;19969;-66
2023/12/27 04:19:11;;;;;;;;;;;1.60;100.00;;;;;;6265877;22;20502;-66
2023/12/27 04:21:39;;;;;;;;;;;1.60;100.00;;;;;;6266886;22;19941;-66
2023/12/27 04:24:06;;;;;;;;;;;1.50;100.00;;;;;;6238740;22;19918;-66
2023/12/27 04:26:35;;;;;;;;;;;1.50;100.00;;;;;;6266359;22;19926;-66
2023/12/27 04:29:02;;;;;;;;;;;1.50;100.00;;;;;;6265873;22;19919;-66
2023/12/27 04:31:29;;;;;;;;;;;1.50;100.00;;;;;;6239517;22;20668;-66
2023/12/27 04:33:55;;;;;;;;;;;1.50;100.00;;;;;;6239429;22;19957;-66
2023/12/27 04:36:22;;;;;;;;;;;1.50;100.00;;;;;;6239737;22;20041;-67
2023/12/27 04:41:56;;;;;;;;;;;1.50;100.00;;;;;;6295438;22;19968;-72
2023/12/27 04:44:22;;;;;;;;;;;1.50;100.00;;;;;;6296199;22;19925;-73
2023/12/27 04:50:08;;;;;;;;;;;1.50;100.00;;;;;;6234688;23;20382;-66
2023/12/27 04:52:35;;;;;;;;;;;1.50;100.00;;;;;;6235098;23;19982;-66
2023/12/27 04:55:02;;;;;;;;;;;1.40;100.00;;;;;;6235776;23;19923;-66
2023/12/27 04:57:29;;;;;;;;;;;1.40;100.00;;;;;;6236100;23;20313;-66
2023/12/27 04:59:56;;;;;;;;;;;1.30;100.00;;;;;;6207696;23;19947;-66
2023/12/27 05:02:23;;;;;;;;;;;1.30;100.00;;;;;;6234062;23;19930;-66
2023/12/27 05:04:49;;;;;;;;;;;1.30;100.00;;;;;;6234269;23;19941;-66
2023/12/27 05:07:16;;;;;;;;;;;1.20;100.00;;;;;;6234423;23;19925;-66
2023/12/27 05:09:43;;;;;;;;;;;1.20;100.00;;;;;;6232349;23;20319;-66
2023/12/27 05:12:10;;;;;;;;;;;1.20;100.00;;;;;;6234927;23;19965;-67
2023/12/27 05:14:37;;;;;;;;;;;1.20;100.00;;;;;;6234540;23;19919;-67
2023/12/27 05:17:04;;;;;;;;;;;1.20;100.00;;;;;;6234047;23;19930;-67
2023/12/27 05:19:30;;;;;;;;;;;1.10;100.00;;;;;;6235897;23;19919;-67
2023/12/27 05:21:57;;;;;;;;;;;1.10;100.00;;;;;;6234623;23;20222;-66
2023/12/27 05:24:24;;;;;;;;;;;1.00;100.00;;;;;;6231593;23;19926;-66
2023/12/27 05:26:53;;;;;;;;;;;0.90;100.00;;;;;;6234778;23;19930;-66
2023/12/27 05:29:19;;;;;;;;;;;0.90;100.00;;;;;;6234973;23;19989;-67
2023/12/27 05:31:46;;;;;;;;;;;0.80;100.00;;;;;;6234920;23;19920;-66
2023/12/27 05:34:13;;;;;;;;;;;0.80;100.00;;;;;;6234208;23;19923;-66
2023/12/27 05:36:40;;;;;;;;;;;0.70;100.00;;;;;;6234632;23;19919;-67
2023/12/27 05:39:07;;;;;;;;;;;0.70;100.00;;;;;;6235047;23;20206;-66
2023/12/27 05:41:33;;;;;;;;;;;0.60;100.00;;;;;;6234851;23;20698;-66
2023/12/27 05:44:01;;;;;;;;;;;0.60;100.00;;;;;;6235967;23;19919;-66
2023/12/27 05:46:28;;;;;;;;;;;0.60;100.00;;;;;;6233685;23;19965;-66
2023/12/27 05:48:55;;;;;;;;;;;0.60;100.00;;;;;;6248221;22;20291;-67
2023/12/27 05:51:22;;;;;;;;;;;0.50;100.00;;;;;;6264668;22;20299;-67
2023/12/27 05:53:49;;;;;;;;;;;0.50;100.00;;;;;;6264395;22;20379;-66
2023/12/27 05:56:15;;;;;;;;;;;0.50;100.00;;;;;;6263614;22;19919;-67
2023/12/27 05:58:42;;;;;;;;;;;0.50;100.00;;;;;;6265400;22;19946;-67
2023/12/27 06:01:09;;;;;;;;;;;0.60;100.00;;;;;;6265386;22;19918;-67
2023/12/27 06:03:36;;;;;;;;;;;0.60;100.00;;;;;;6264876;22;19919;-66
2023/12/27 06:06:03;;;;;;;;;;;0.60;100.00;;;;;;6264725;22;19919;-66
2023/12/27 06:08:30;;;;;;;;;;;0.70;100.00;;;;;;6265094;22;19919;-66
2023/12/27 06:10:56;;;;;;;;;;;0.70;100.00;;;;;;6265106;22;20000;-66
2023/12/27 06:13:23;;;;;;;;;;;0.70;100.00;;;;;;6264703;22;19919;-66
2023/12/27 06:15:50;;;;;;;;;;;0.80;100.00;;;;;;6266360;22;19919;-66
2023/12/27 06:18:17;;;;;;;;;;;0.80;100.00;;;;;;6265736;22;19919;-66
2023/12/27 06:20:44;;;;;;;;;;;0.80;100.00;;;;;;6265490;22;19931;-66
2023/12/27 06:23:11;;;;;;;;;;;0.80;100.00;;;;;;6263621;22;19961;-66
2023/12/27 06:25:37;;;;;;;;;;;0.80;100.00;;;;;;6266103;22;20229;-66
2023/12/27 06:28:04;;;;;;;;;;;0.80;100.00;;;;;;6264681;22;20573;-66
2023/12/27 06:30:31;;;;;;;;;;;0.80;100.00;;;;;;6264203;22;19919;-66
2023/12/27 06:32:58;;;;;;;;;;;0.80;100.00;;;;;;6264474;22;19959;-66
2023/12/27 06:35:25;;;;;;;;;;;0.70;100.00;;;;;;6236769;22;19947;-66
2023/12/27 06:37:52;;;;;;;;;;;0.70;100.00;;;;;;6265630;22;20312;-66
2023/12/27 06:40:18;;;;;;;;;;;0.70;100.00;;;;;;6265050;22;19927;-66
2023/12/27 06:42:45;;;;;;;;;;;0.70;100.00;;;;;;6264958;22;19984;-66
2023/12/27 06:45:12;;;;;;;;;;;0.70;100.00;;;;;;6263502;22;20281;-66
2023/12/27 06:47:39;;;;;;;;;;;0.70;100.00;;;;;;6266254;22;19962;-66
2023/12/27 06:50:06;;;;;;;;;;;0.70;100.00;;;;;;6263781;22;19996;-66
2023/12/27 06:52:33;;;;;;;;;;;0.60;100.00;;;;;;6264516;22;19926;-66
2023/12/27 06:55:00;;;;;;;;;;;0.70;100.00;;;;;;6264069;22;19923;-65
2023/12/27 06:57:27;;;;;;;;;;;0.70;100.00;;;;;;6237141;22;19926;-65
2023/12/27 06:59:53;;;;;;;;;;;0.60;100.00;;;;;;6235587;22;19932;-66
2023/12/27 07:02:20;;;;;;;;;;;0.60;100.00;;;;;;6263941;22;19918;-65
2023/12/27 07:04:47;;;;;;;;;;;0.60;100.00;;;;;;6263565;22;19915;-64
2023/12/27 07:07:14;;;;;;;;;;;0.60;100.00;;;;;;6263345;22;19962;-64
2023/12/27 07:09:42;;;;;;;;;;;0.70;100.00;;;;;;6261214;22;19919;-65
2023/12/27 07:12:09;;;;;;;;;;;0.70;100.00;;;;;;6264187;22;20688;-64
2023/12/27 07:14:36;;;;;;;;;;;0.70;100.00;;;;;;6266164;22;19919;-64
2023/12/27 07:17:04;;;;;;;;;;;0.70;100.00;;;;;;6263982;22;20321;-64
2023/12/27 07:19:31;;;;;;;;;;;0.70;100.00;;;;;;6267725;22;19939;-65
2023/12/27 07:21:57;;;;;;;;;;;0.60;100.00;;;;;;6266540;22;19928;-64
2023/12/27 07:24:24;;;;;;;;;;;0.60;100.00;;;;;;6266593;22;19932;-65
2023/12/27 07:26:51;;;;;;;;;;;0.60;100.00;;;;;;6267812;22;19919;-64
2023/12/27 07:29:18;;;;;;;;;;;0.60;100.00;;;;;;6267194;22;20587;-64
2023/12/27 07:31:44;;;;;;;;;;;0.60;100.00;;;;;;6264675;22;19919;-66
2023/12/27 07:34:11;;;;;;;;;;;0.60;100.00;;;;;;6267709;22;19919;-64
2023/12/27 07:36:38;;;;;;;;;;;0.60;100.00;;;;;;6266853;22;20018;-66
2023/12/27 07:39:06;;;;;;;;;;;0.60;100.00;;;;;;6266221;22;19919;-66
2023/12/27 07:41:33;;;;;;;;;;;0.60;100.00;;;;;;6266329;22;19915;-66
2023/12/27 07:44:00;;;;;;;;;;;0.60;100.00;;;;;;6240400;22;19926;-66
2023/12/27 07:46:26;;;;;;;;;;;0.60;100.00;;;;;;6266092;22;19930;-65
2023/12/27 07:48:53;;;;;;;;;;;0.60;100.00;;;;;;6265756;22;19919;-66
2023/12/27 07:51:21;;;;;;;;;;;0.60;100.00;;;;;;6266785;22;20400;-66
2023/12/27 07:53:50;;;;;;;;;;;0.60;100.00;;;;;;6265805;22;19943;-66
2023/12/27 07:56:18;;;;;;;;;;;0.60;100.00;;;;;;6265359;22;19926;-66
2023/12/27 07:58:48;;;;;;;;;;;0.50;100.00;;;;;;6266456;22;19945;-66
2023/12/27 08:01:15;;;;;;;;;;;0.50;100.00;;;;;;6266627;22;20348;-66
2023/12/27 08:03:44;;;;;;;;;;;0.50;100.00;;;;;;6266534;22;20307;-66
2023/12/27 08:06:12;;;;;;;;;;;0.50;100.00;;;;;;6266370;22;19992;-66
2023/12/27 08:08:39;;;;;;;;;;;0.50;100.00;;;;;;6267268;22;20499;-66
2023/12/27 08:11:06;;;;;;;;;;;0.50;100.00;;;;;;6267012;22;19934;-66
2023/12/27 08:13:32;;;;;;;;;;;0.50;100.00;;;;;;6267032;22;19922;-66
2023/12/27 08:15:59;;;;;;;;;;;0.50;100.00;;;;;;6266720;22;20008;-66
2023/12/27 08:18:26;;;;;;;;;;;0.50;100.00;;;;;;6266186;22;19919;-66
2023/12/27 08:20:53;;;;;;;;;;;0.60;100.00;;;;;;6266234;22;19997;-66
2023/12/27 08:23:20;;;;;;;;;;;0.60;100.00;;;;;;6264864;22;19923;-66
2023/12/27 08:25:48;;;;;;;;;;;0.60;100.00;;;;;;6266053;22;19919;-66
2023/12/27 08:28:16;;;;;;;;;;;0.60;100.00;;;;;;6265776;22;19919;-66
2023/12/27 08:30:44;;;;;;;;;;;0.70;100.00;;;;;;6266609;22;19957;-66
2023/12/27 08:33:11;;;;;;;;;;;0.80;100.00;;;;;;6266332;22;19926;-66
2023/12/27 08:35:38;;;;;;;;;;;0.80;100.00;;;;;;6264040;22;19954;-66
2023/12/27 08:38:05;;;;;;;;;;;0.90;100.00;;;;;;6264481;22;19919;-66
2023/12/27 08:40:32;;;;;;;;;;;0.90;100.00;;;;;;6267025;22;19954;-66
2023/12/27 08:42:58;;;;;;;;;;;1.00;100.00;;;;;;6265874;22;20729;-66
2023/12/27 08:45:25;;;;;;;;;;;1.00;100.00;;;;;;6265430;22;19961;-66
2023/12/27 08:47:52;;;;;;;;;;;1.10;100.00;;;;;;6264800;22;19919;-66
2023/12/27 08:50:19;;;;;;;;;;;1.10;100.00;;;;;;6266604;22;19919;-66
2023/12/27 08:52:46;;;;;;;;;;;1.10;100.00;;;;;;6265997;22;19923;-66
2023/12/27 08:55:12;;;;;;;;;;;1.20;100.00;;;;;;6264892;22;19922;-67
2023/12/27 08:57:40;;;;;;;;;;;1.20;100.00;;;;;;6263821;22;19922;-66
2023/12/27 09:00:10;;;;;;;;;;;1.20;100.00;;;;;;6262862;22;20346;-66
2023/12/27 09:02:40;;;;;;;;;;;1.30;100.00;;;;;;6266556;22;19938;-65
2023/12/27 09:05:07;;;;;;;;;;;1.40;100.00;;;;;;6237762;22;19919;-66
2023/12/27 09:07:34;;;;;;;;;;;1.40;100.00;;;;;;6265338;22;19986;-66
2023/12/27 09:10:01;;;;;;;;;;;1.50;100.00;;;;;;6266370;22;19972;-66
2023/12/27 09:12:28;;;;;;;;;;;1.60;100.00;;;;;;6266866;22;19968;-66
2023/12/27 09:14:54;;;;;;;;;;;1.70;100.00;;;;;;6263844;22;20283;-66
2023/12/27 09:17:21;;;;;;;;;;;1.70;100.00;;;;;;6266225;22;20012;-66
2023/12/27 09:19:48;;;;;;;;;;;1.80;100.00;;;;;;6266820;22;20028;-68
2023/12/27 09:22:15;;;;;;;;;;;1.90;100.00;;;;;;6266430;22;19918;-66
2023/12/27 09:24:42;;;;;;;;;;;1.90;100.00;;;;;;6265370;22;19925;-66
2023/12/27 09:27:13;;;;;;;;;;;2.00;100.00;;;;;;6239353;22;20606;-66
2023/12/27 09:29:42;;;;;;;;;;;2.00;100.00;;;;;;6266215;22;19946;-66
2023/12/27 09:32:09;;;;;;;;;;;2.10;100.00;;;;;;6264058;22;20643;-66
2023/12/27 09:34:36;;;;;;;;;;;2.20;100.00;;;;;;6265105;22;19919;-66
2023/12/27 09:37:03;;;;;;;;;;;2.20;100.00;;;;;;6265538;22;19969;-66
2023/12/27 09:39:30;;;;;;;;;;;2.30;100.00;;;;;;6265386;22;19923;-66
2023/12/27 09:42:00;;;;;;;;;;;2.30;100.00;;;;;;6266249;22;20255;-66
2023/12/27 09:44:27;;;;;;;;;;;2.30;100.00;;;;;;6265625;22;20348;-66
2023/12/27 09:46:55;;;;;;;;;;;2.40;100.00;;;;;;6265927;22;19919;-66
2023/12/27 09:49:22;;;;;;;;;;;2.50;100.00;;;;;;6265686;22;19929;-66
2023/12/27 09:51:50;;;;;;;;;;;2.60;100.00;;;;;;6266685;22;19919;-66
2023/12/27 09:54:17;;;;;;;;;;;2.60;100.00;;;;;;6238988;22;19954;-65
2023/12/27 09:56:45;;;;;;;;;;;2.60;100.00;;;;;;6263707;22;19965;-66
2023/12/27 09:59:16;;;;;;;;;;;2.70;100.00;;;;;;6261741;22;19919;-66
2023/12/27 10:01:44;;;;;;;;;;;2.70;100.00;;;;;;6262851;22;19965;-66
2023/12/27 10:04:30;;;;;;;;;;;2.70;100.00;;;;;;6261478;22;20676;-66
2023/12/27 10:06:58;;;;;;;;;;;2.80;100.00;;;;;;6261379;22;20709;-66
2023/12/27 10:09:25;;;;;;;;;;;2.80;100.00;;;;;;6262185;22;19927;-66
2023/12/27 10:11:53;;;;;;;;;;;2.90;100.00;;;;;;6264335;22;19919;-65
2023/12/27 10:14:19;;;;;;;;;;;3.00;100.00;;;;;;6258897;22;19923;-66
2023/12/27 10:16:46;;;;;;;;;;;3.00;100.00;;;;;;6260054;22;19919;-66
2023/12/27 10:19:32;;;;;;;;;;;3.10;100.00;;;;;;6260369;22;20620;-66
2023/12/27 10:22:00;;;;;;;;;;;3.10;100.00;;;;;;6262970;22;19919;-67
2023/12/27 10:24:27;;;;;;;;;;;3.10;100.00;;;;;;6263497;22;19919;-67
2023/12/27 10:26:59;;;;;;;;;;;3.10;100.00;;;;;;6265037;22;19915;-67
2023/12/27 10:29:26;;;;;;;;;;;3.20;100.00;;;;;;6264687;22;19926;-67
2023/12/27 10:31:53;;;;;;;;;;;3.30;100.00;;;;;;6265629;22;19926;-67
2023/12/27 10:34:20;;;;;;;;;;;3.30;100.00;;;;;;6265080;22;20004;-67
2023/12/27 10:36:49;;;;;;;;;;;3.40;100.00;;;;;;6265380;22;19919;-67
2023/12/27 10:39:17;;;;;;;;;;;3.40;100.00;;;;;;6264806;22;20033;-66
2023/12/27 10:41:44;;;;;;;;;;;3.50;100.00;;;;;;6238634;22;19919;-67
2023/12/27 10:44:11;;;;;;;;;;;3.70;100.00;;;;;;6264871;22;19976;-66
2023/12/27 10:46:39;;;;;;;;;;;3.80;100.00;;;;;;6237220;22;19994;-66
2023/12/27 10:49:06;;;;;;;;;;;3.90;100.00;;;;;;6265692;22;19919;-66
2023/12/27 10:51:38;;;;;;;;;;;4.10;100.00;;;;;;6264679;22;19919;-66
2023/12/27 10:54:06;;;;;;;;;;;4.10;100.00;;;;;;6264076;22;20259;-66
2023/12/27 10:56:39;;;;;;;;;;;4.10;100.00;;;;;;6239106;22;19922;-67
2023/12/27 10:59:07;;;;;;;;;;;4.10;100.00;;;;;;6266253;22;19996;-66
2023/12/27 11:04:40;;;;;;;;;;;4.10;100.00;;;;;;6295176;22;19919;-72
2023/12/27 11:07:08;;;;;;;;;;;4.10;100.00;;;;;;6268139;22;19937;-73
2023/12/27 11:09:36;;;;;;;;;;;4.10;100.00;;;;;;6295143;22;19918;-73
2023/12/27 11:12:06;;;;;;;;;;;4.20;100.00;;;;;;6267892;22;19918;-72
2023/12/27 11:14:35;;;;;;;;;;;4.20;100.00;;;;;;6295920;22;19921;-72
2023/12/27 11:17:05;;;;;;;;;;;4.40;100.00;;;;;;6268249;22;19926;-72
2023/12/27 11:19:32;;;;;;;;;;;4.50;100.00;;;;;;6296270;22;19926;-71
2023/12/27 11:21:59;;;;;;;;;;;4.50;100.00;;;;;;6295671;22;19988;-72
2023/12/27 11:24:27;;;;;;;;;;;4.70;100.00;;;;;;6295224;22;20323;-71
2023/12/27 11:27:00;;;;;;;;;;;4.90;100.00;;;;;;6295482;22;19918;-72
2023/12/27 11:29:28;;;;;;;;;;;5.00;100.00;;;;;;6296040;22;19965;-73
2023/12/27 11:31:58;;;;;;;;;;;5.10;100.00;;;;;;6268221;22;19964;-72
2023/12/27 11:34:25;;;;;;;;;;;5.20;100.00;;;;;;6267798;22;20399;-72
2023/12/27 11:36:52;;;;;;;;;;;5.30;100.00;;;;;;6296103;22;19919;-72
2023/12/27 11:39:19;;;;;;;;;;;5.40;100.00;;;;;;6295268;22;20252;-72
2023/12/27 11:41:47;;;;;;;;;;;5.40;100.00;;;;;;6295956;22;19919;-72
2023/12/27 11:44:14;;;;;;;;;;;5.40;100.00;;;;;;6295777;22;20381;-72
2023/12/27 11:46:42;;;;;;;;;;;5.40;100.00;;;;;;6295327;22;19990;-72
2023/12/27 11:49:09;;;;;;;;;;;5.30;100.00;;;;;;6296494;22;20607;-72
2023/12/27 11:51:37;;;;;;;;;;;5.30;100.00;;;;;;6296417;22;19922;-72
2023/12/27 11:54:04;;;;;;;;;;;5.30;100.00;;;;;;6295920;22;19976;-73
2023/12/27 11:56:32;;;;;;;;;;;5.20;100.00;;;;;;6268163;22;19925;-73
2023/12/27 11:59:08;;;;;;;;;;;5.20;100.00;;;;;;6296769;22;20346;-73
2023/12/27 12:01:36;;;;;;;;;;;5.10;100.00;;;;;;6299040;22;19926;-73
2023/12/27 12:04:22;;;;;;;;;;;5.00;100.00;;;;;;6298135;22;19919;-73
2023/12/27 12:06:55;;;;;;;;;;;4.90;100.00;;;;;;6298098;22;19941;-73
2023/12/27 12:09:28;;;;;;;;;;;4.80;100.00;;;;;;6297906;22;19922;-73
2023/12/27 12:11:55;;;;;;;;;;;4.80;100.00;;;;;;6297778;22;19997;-72
2023/12/27 12:14:22;;;;;;;;;;;4.80;100.00;;;;;;6271000;22;20521;-72
2023/12/27 12:16:50;;;;;;;;;;;4.80;100.00;;;;;;6298322;22;19964;-73
2023/12/27 12:19:17;;;;;;;;;;;4.80;100.00;;;;;;6297631;22;19926;-72
2023/12/27 12:21:45;;;;;;;;;;;4.80;100.00;;;;;;6270260;22;19958;-72
2023/12/27 12:24:14;;;;;;;;;;;4.90;100.00;;;;;;6298297;22;19919;-72
2023/12/27 12:26:45;;;;;;;;;;;5.00;100.00;;;;;;6270395;22;19919;-73
2023/12/27 12:29:12;;;;;;;;;;;5.00;100.00;;;;;;6297623;22;19923;-72
2023/12/27 12:31:39;;;;;;;;;;;5.10;100.00;;;;;;6269747;22;19919;-73
2023/12/27 12:34:06;;;;;;;;;;;5.00;100.00;;;;;;6297199;22;19923;-73
2023/12/27 12:36:33;;;;;;;;;;;5.00;100.00;;;;;;6296300;22;19948;-73
2023/12/27 12:39:00;;;;;;;;;;;4.90;100.00;;;;;;6297029;22;19954;-73
2023/12/27 12:41:31;;;;;;;;;;;5.00;100.00;;;;;;6297110;22;19926;-73
2023/12/27 12:43:58;;;;;;;;;;;5.00;100.00;;;;;;6296902;22;19919;-73
2023/12/27 12:46:25;;;;;;;;;;;5.10;100.00;;;;;;6297173;22;19923;-73
2023/12/27 12:48:52;;;;;;;;;;;5.10;100.00;;;;;;6297137;22;20370;-73
2023/12/27 12:51:19;;;;;;;;;;;5.10;100.00;;;;;;6296852;22;19922;-73
2023/12/27 12:53:47;;;;;;;;;;;5.10;100.00;;;;;;6269369;22;20327;-73
2023/12/27 12:56:14;;;;;;;;;;;5.20;100.00;;;;;;6297076;22;19919;-73
2023/12/27 12:58:41;;;;;;;;;;;5.20;100.00;;;;;;6296449;22;19914;-73
2023/12/27 13:01:09;;;;;;;;;;;5.20;100.00;;;;;;6297028;22;19997;-73
2023/12/27 13:03:43;;;;;;;;;;;5.20;100.00;;;;;;6297255;22;19988;-73
2023/12/27 13:06:14;;;;;;;;;;;5.20;100.00;;;;;;6296432;22;20336;-73
2023/12/27 13:08:47;;;;;;;;;;;5.10;100.00;;;;;;6268902;22;20621;-72
2023/12/27 13:11:14;;;;;;;;;;;5.00;100.00;;;;;;6269915;22;20350;-72
2023/12/27 13:13:41;;;;;;;;;;;5.00;100.00;;;;;;6269824;22;19923;-72
2023/12/27 13:16:08;;;;;;;;;;;5.00;100.00;;;;;;6296040;22;19919;-73
2023/12/27 13:18:36;;;;;;;;;;;4.90;100.00;;;;;;6296938;22;20007;-73
2023/12/27 13:21:12;;;;;;;;;;;4.80;100.00;;;;;;6296375;22;19919;-73
2023/12/27 13:23:39;;;;;;;;;;;4.80;100.00;;;;;;6296601;22;20390;-73
2023/12/27 13:26:06;;;;;;;;;;;4.70;100.00;;;;;;6269791;22;19919;-73
2023/12/27 13:28:33;;;;;;;;;;;4.60;100.00;;;;;;6296296;22;19919;-73
2023/12/27 13:31:00;;;;;;;;;;;4.60;100.00;;;;;;6295950;22;19923;-73
2023/12/27 13:33:27;;;;;;;;;;;4.50;100.00;;;;;;6296090;22;20407;-73
2023/12/27 13:35:55;;;;;;;;;;;4.50;100.00;;;;;;6296721;22;19927;-72
2023/12/27 13:38:21;;;;;;;;;;;4.40;100.00;;;;;;6296418;22;19919;-73
2023/12/27 13:40:48;;;;;;;;;;;4.40;100.00;;;;;;6268341;22;20436;-72
2023/12/27 13:43:16;;;;;;;;;;;4.40;100.00;;;;;;6269382;22;20493;-73
2023/12/27 13:45:43;;;;;;;;;;;4.40;100.00;;;;;;6296230;22;19919;-72
2023/12/27 13:48:10;;;;;;;;;;;4.30;100.00;;;;;;6295377;22;20729;-73
2023/12/27 13:50:37;;;;;;;;;;;4.30;100.00;;;;;;6297075;22;19965;-73
2023/12/27 13:53:04;;;;;;;;;;;4.20;100.00;;;;;;6296929;22;19923;-73
2023/12/27 13:55:32;;;;;;;;;;;4.10;100.00;;;;;;6296162;22;19990;-73
2023/12/27 13:57:59;;;;;;;;;;;4.00;100.00;;;;;;6295978;22;19938;-73
2023/12/27 14:00:26;;;;;;;;;;;4.00;100.00;;;;;;6296823;22;20240;-73
2023/12/27 14:02:53;;;;;;;;;;;4.00;100.00;;;;;;6268379;22;19941;-73
2023/12/27 14:05:20;;;;;;;;;;;4.00;100.00;;;;;;6296033;22;19918;-73
2023/12/27 14:07:48;;;;;;;;;;;3.90;100.00;;;;;;6268614;22;20282;-74
2023/12/27 14:10:15;;;;;;;;;;;3.90;100.00;;;;;;6296928;22;19994;-72
2023/12/27 14:12:42;;;;;;;;;;;3.90;100.00;;;;;;6296041;22;19942;-73
2023/12/27 14:15:11;;;;;;;;;;;3.80;100.00;;;;;;6295965;22;20312;-72
2023/12/27 14:17:41;;;;;;;;;;;3.80;100.00;;;;;;6296081;22;19938;-73
2023/12/27 14:20:10;;;;;;;;;;;3.80;100.00;;;;;;6295651;22;20009;-72
2023/12/27 14:22:37;;;;;;;;;;;3.70;100.00;;;;;;6295509;22;20416;-72
2023/12/27 14:25:04;;;;;;;;;;;3.70;100.00;;;;;;6268818;22;19918;-72
2023/12/27 14:27:31;;;;;;;;;;;3.70;100.00;;;;;;6295413;22;19919;-73